createdAt,value
2019-02-12T00:01:22.568Z,102042.06
2019-02-12T00:06:25.005Z,102033.06
2019-02-12T00:11:27.443Z,102036.89
2019-02-12T00:16:29.875Z,102031.66
2019-02-12T00:21:32.316Z,102033.31
2019-02-12T00:26:34.750Z,102037.90
2019-02-12T00:31:37.189Z,102052.19
2019-02-12T00:36:39.620Z,102064.05
2019-02-12T00:41:42.102Z,102072.41
2019-02-12T00:46:44.554Z,102078.78
2019-02-12T00:51:47.001Z,102089.20
2019-02-12T00:56:49.433Z,102103.32
2019-02-12T01:01:51.869Z,102107.70
2019-02-12T01:06:54.296Z,102111.69
2019-02-12T01:11:56.731Z,102123.98
2019-02-12T01:16:59.173Z,102128.23
2019-02-12T01:22:01.609Z,102119.47
2019-02-12T01:27:04.044Z,102105.95
2019-02-12T01:32:06.483Z,102096.39
2019-02-12T01:37:08.918Z,102104.28
2019-02-12T01:42:11.599Z,102104.56
2019-02-12T01:47:14.051Z,102128.94
2019-02-12T01:52:16.483Z,102139.62
2019-02-12T01:57:18.919Z,102140.90
2019-02-12T02:02:21.362Z,102148.98
2019-02-12T02:07:23.790Z,102142.22
2019-02-12T02:12:26.223Z,102147.22
2019-02-12T02:17:28.656Z,102151.33
2019-02-12T02:22:31.091Z,102156.06
2019-02-12T02:27:33.536Z,102150.05
2019-02-12T02:32:35.979Z,102143.70
2019-02-12T02:37:38.416Z,102143.41
2019-02-12T02:42:40.850Z,102159.29
2019-02-12T02:47:43.283Z,102169.39
2019-02-12T02:52:45.722Z,102173.52
2019-02-12T02:57:48.192Z,102180.98
2019-02-12T03:02:50.628Z,102190.13
2019-02-12T03:07:53.074Z,102195.34
2019-02-12T03:12:55.506Z,102197.94
2019-02-12T03:17:57.954Z,102210.84
2019-02-12T03:23:00.391Z,102222.26
2019-02-12T03:28:02.843Z,102222.02
2019-02-12T03:33:05.291Z,102226.39
2019-02-12T03:38:07.708Z,102233.16
2019-02-12T03:43:10.148Z,102228.11
2019-02-12T03:48:12.599Z,102221.89
2019-02-12T03:53:15.042Z,102218.81
2019-02-12T03:58:17.471Z,102221.61
2019-02-12T04:03:19.909Z,102225.17
2019-02-12T04:08:22.348Z,102227.08
2019-02-12T04:13:24.805Z,102235.61
2019-02-12T04:18:27.255Z,102239.93
2019-02-12T04:23:29.683Z,102236.05
2019-02-12T04:28:32.135Z,102235.05
2019-02-12T04:33:34.573Z,102229.45
2019-02-12T04:38:37.004Z,102233.41
2019-02-12T04:43:39.438Z,102238.31
2019-02-12T04:48:41.876Z,102238.80
2019-02-12T04:53:44.307Z,102236.80
2019-02-12T04:58:46.754Z,102238.55
2019-02-12T05:03:49.555Z,102237.64
2019-02-12T05:09:09.417Z,102231.62
2019-02-12T05:14:11.887Z,102240.78
2019-02-12T05:19:14.345Z,102235.05
2019-02-12T05:24:16.778Z,102244.43
2019-02-12T05:29:19.210Z,102251.23
2019-02-12T05:34:21.641Z,102249.77
2019-02-12T05:39:24.070Z,102256.66
2019-02-12T05:44:26.520Z,102265.66
2019-02-12T05:49:28.960Z,102285.02
2019-02-12T05:54:31.403Z,102274.70
2019-02-12T05:59:33.823Z,102280.48
2019-02-12T06:04:36.280Z,102280.02
2019-02-12T06:09:38.732Z,102281.05
2019-02-12T06:14:41.166Z,102278.38
2019-02-12T06:19:43.606Z,102282.19
2019-02-12T06:24:46.094Z,102279.61
2019-02-12T06:29:48.535Z,102283.41
2019-02-12T06:34:50.979Z,102290.45
2019-02-12T06:39:53.435Z,102288.17
2019-02-12T06:44:55.876Z,102306.28
2019-02-12T06:49:58.481Z,102318.58
2019-02-12T06:55:00.936Z,102319.25
2019-02-12T07:00:03.366Z,102324.53
2019-02-12T07:05:05.805Z,102338.87
2019-02-12T07:10:08.326Z,102333.82
2019-02-12T07:15:10.708Z,102347.90
2019-02-12T07:20:22.055Z,102355.03
2019-02-12T07:25:52.326Z,102357.26
2019-02-12T07:30:57.620Z,102361.78
2019-02-12T07:36:24.214Z,102358.98
2019-02-12T07:41:41.713Z,102361.67
2019-02-12T07:47:11.458Z,102375.34
2019-02-12T07:52:25.952Z,102369.77
2019-02-12T07:57:55.815Z,102372.27
2019-02-12T08:03:19.814Z,102379.71
2019-02-12T08:08:28.394Z,102389.59
2019-02-12T08:13:49.284Z,102403.14
2019-02-12T08:19:15.588Z,102405.69
2019-02-12T08:24:30.093Z,102419.66
2019-02-12T08:29:35.264Z,102426.20
2019-02-12T08:34:46.575Z,102433.49
2019-02-12T08:39:57.970Z,102439.97
2019-02-12T08:45:19.203Z,102450.92
2019-02-12T08:50:46.082Z,102451.71
2019-02-12T08:55:48.513Z,102443.86
2019-02-12T09:00:50.962Z,102450.39
2019-02-12T09:06:14.560Z,102458.50
2019-02-12T09:11:17.007Z,102461.63
2019-02-12T09:16:19.506Z,102471.85
2019-02-12T09:21:46.616Z,102471.82
2019-02-12T09:27:07.676Z,102483.30
2019-02-12T09:32:43.839Z,102486.71
2019-02-12T09:38:07.413Z,102491.75
2019-02-12T09:43:34.268Z,102493.59
2019-02-12T09:49:01.202Z,102497.11
2019-02-12T09:54:15.583Z,102500.85
2019-02-12T09:59:18.073Z,102495.94
2019-02-12T10:04:32.251Z,102503.67
2019-02-12T10:09:43.805Z,102512.48
2019-02-12T10:14:54.932Z,102520.77
2019-02-12T10:20:15.764Z,102521.75
2019-02-12T10:25:18.214Z,102524.84
2019-02-12T10:30:29.655Z,102535.14
2019-02-12T10:35:32.089Z,102520.23
2019-02-12T10:40:34.542Z,102531.76
2019-02-12T10:45:36.988Z,102527.00
2019-02-12T10:50:39.489Z,102528.36
2019-02-12T10:55:41.928Z,102533.08
2019-02-12T11:00:44.370Z,102532.42
2019-02-12T11:05:46.818Z,102524.38
2019-02-12T11:10:49.266Z,102526.06
2019-02-12T11:15:51.703Z,102529.13
2019-02-12T11:20:54.268Z,102525.86
2019-02-12T11:25:56.706Z,102530.46
2019-02-12T11:30:59.135Z,102521.84
2019-02-12T11:36:01.601Z,102525.11
2019-02-12T11:41:04.062Z,102537.83
2019-02-12T11:46:06.508Z,102530.36
2019-02-12T11:51:08.961Z,102524.68
2019-02-12T11:56:11.391Z,102526.05
2019-02-12T12:01:13.830Z,102521.02
2019-02-12T12:06:16.271Z,102527.25
2019-02-12T12:11:18.706Z,102527.07
2019-02-12T12:16:21.160Z,102522.88
2019-02-12T12:21:23.598Z,102525.37
2019-02-12T12:26:26.064Z,102522.52
2019-02-12T12:31:28.543Z,102521.16
2019-02-12T12:36:30.994Z,102514.34
2019-02-12T12:41:33.429Z,102506.67
2019-02-12T12:46:35.879Z,102510.95
2019-02-12T12:51:38.318Z,102516.66
2019-02-12T12:56:40.762Z,102509.86
2019-02-12T13:01:43.198Z,102510.52
2019-02-12T13:06:45.647Z,102514.39
2019-02-12T13:11:48.092Z,102510.95
2019-02-12T13:16:50.532Z,102518.97
2019-02-12T13:21:52.983Z,102516.80
2019-02-12T13:26:55.422Z,102508.19
2019-02-12T13:31:57.871Z,102501.72
2019-02-12T13:37:00.340Z,102506.63
2019-02-12T13:42:02.977Z,102509.58
2019-02-12T13:47:05.415Z,102505.78
2019-02-12T13:52:07.857Z,102514.75
2019-02-12T13:57:10.303Z,102512.73
2019-02-12T14:02:12.743Z,102508.13
2019-02-12T14:07:15.198Z,102504.19
2019-02-12T14:12:17.655Z,102509.75
2019-02-12T14:17:20.083Z,102504.20
2019-02-12T14:22:22.527Z,102500.89
2019-02-12T14:27:24.978Z,102503.29
2019-02-12T14:32:27.422Z,102514.70
2019-02-12T14:37:29.863Z,102511.63
2019-02-12T14:42:32.296Z,102516.30
2019-02-12T14:47:34.732Z,102516.56
2019-02-12T14:52:37.169Z,102517.81
2019-02-12T14:57:39.609Z,102512.68
2019-02-12T15:02:42.054Z,102520.55
2019-02-12T15:07:44.496Z,102521.66
2019-02-12T15:12:46.941Z,102521.82
2019-02-12T15:17:49.382Z,102516.41
2019-02-12T15:22:51.827Z,102518.84
2019-02-12T15:27:54.303Z,102519.44
2019-02-12T15:32:56.737Z,102520.56
2019-02-12T15:37:59.177Z,102515.15
2019-02-12T15:43:01.627Z,102528.73
2019-02-12T15:48:04.537Z,102528.74
2019-02-12T15:53:06.966Z,102525.11
2019-02-12T15:58:09.751Z,102518.07
2019-02-12T16:03:12.187Z,102526.91
2019-02-12T16:08:14.715Z,102526.16
2019-02-12T16:13:17.168Z,102535.25
2019-02-12T16:18:21.403Z,102535.13
2019-02-12T16:23:22.083Z,102539.26
2019-02-12T16:28:24.520Z,102538.14
2019-02-12T16:33:26.979Z,102541.63
2019-02-12T16:38:29.431Z,102545.55
2019-02-12T16:43:31.872Z,102557.69
2019-02-12T16:48:36.147Z,102554.06
2019-02-12T16:53:36.776Z,102569.05
2019-02-12T16:58:39.294Z,102568.14
2019-02-12T17:03:41.813Z,102578.75
2019-02-12T17:08:44.354Z,102579.11
2019-02-12T17:13:46.804Z,102591.16
2019-02-12T17:18:49.246Z,102592.63
2019-02-12T17:23:51.710Z,102596.06
2019-02-12T17:28:54.304Z,102604.52
2019-02-12T17:33:56.748Z,102608.70
2019-02-12T17:38:59.197Z,102605.62
2019-02-12T17:44:01.669Z,102610.63
2019-02-12T17:49:04.182Z,102608.83
2019-02-12T17:54:06.693Z,102606.98
2019-02-12T17:59:09.165Z,102613.63
2019-02-12T18:04:11.635Z,102629.03
2019-02-12T18:09:14.071Z,102632.95
2019-02-12T18:14:16.515Z,102641.66
2019-02-12T18:19:18.953Z,102640.47
2019-02-12T18:24:22.562Z,102647.36
2019-02-12T18:29:25.007Z,102645.17
2019-02-12T18:34:27.550Z,102652.22
2019-02-12T18:39:30.009Z,102655.21
2019-02-12T18:44:32.455Z,102655.78
2019-02-12T18:49:34.914Z,102659.22
2019-02-12T18:54:37.364Z,102662.08
2019-02-12T18:59:39.801Z,102648.34
2019-02-12T19:04:42.259Z,102650.68
2019-02-12T19:09:44.736Z,102661.85
2019-02-12T19:14:47.570Z,102668.84
2019-02-12T19:19:50.060Z,102680.81
2019-02-12T19:24:52.511Z,102675.56
2019-02-12T19:29:54.959Z,102681.99
2019-02-12T19:34:57.419Z,102684.35
2019-02-12T19:39:59.860Z,102687.35
2019-02-12T19:45:02.313Z,102679.80
2019-02-12T19:50:04.751Z,102683.72
2019-02-12T19:55:10.126Z,102696.00
2019-02-12T20:00:15.594Z,102695.03
2019-02-12T20:05:18.051Z,102701.05
2019-02-12T20:10:20.515Z,102693.08
2019-02-12T20:15:22.993Z,102695.13
2019-02-12T20:20:25.454Z,102698.01
2019-02-12T20:25:27.913Z,102685.16
2019-02-12T20:30:30.381Z,102692.93
2019-02-12T20:35:36.449Z,102699.55
2019-02-12T20:40:35.538Z,102706.08
2019-02-12T20:45:38.040Z,102700.50
2019-02-12T20:50:40.520Z,102701.73
2019-02-12T20:55:42.968Z,102702.01
2019-02-12T21:00:45.424Z,102712.82
2019-02-12T21:05:47.881Z,102714.16
2019-02-12T21:10:50.605Z,102719.43
2019-02-12T21:15:53.060Z,102715.63
2019-02-12T21:20:55.519Z,102708.27
2019-02-12T21:25:57.990Z,102715.14
2019-02-12T21:31:00.418Z,102713.08
2019-02-12T21:36:06.267Z,102702.09
2019-02-12T21:41:08.724Z,102690.80
2019-02-12T21:46:11.178Z,102701.63
2019-02-12T21:51:13.640Z,102721.10
2019-02-12T21:56:16.075Z,102717.19
2019-02-12T22:01:18.567Z,102721.81
2019-02-12T22:06:21.009Z,102720.03
2019-02-12T22:11:23.445Z,102730.78
2019-02-12T22:16:25.896Z,102722.94
2019-02-12T22:21:28.338Z,102716.74
2019-02-12T22:26:30.792Z,102707.64
2019-02-12T22:31:33.229Z,102704.34
2019-02-12T22:36:35.671Z,102707.54
2019-02-12T22:41:38.102Z,102724.13
2019-02-12T22:46:40.547Z,102732.33
2019-02-12T22:51:43.016Z,102718.45
2019-02-12T22:56:45.452Z,102713.63
2019-02-12T23:01:47.889Z,102719.48
2019-02-12T23:06:50.332Z,102714.07
2019-02-12T23:11:52.781Z,102716.09
2019-02-12T23:16:55.237Z,102726.98
2019-02-12T23:21:57.687Z,102735.84
2019-02-12T23:27:00.129Z,102739.80
2019-02-12T23:32:02.555Z,102728.70
2019-02-12T23:37:05.002Z,102733.22
2019-02-12T23:42:07.449Z,102716.56
2019-02-12T23:47:09.897Z,102723.46
2019-02-12T23:52:12.334Z,102728.89
2019-02-12T23:57:14.778Z,102735.47
